WetterOnline ( http://www.wetteronline.de )

Wetter aktuell Mülheim

Aktuelles Wetter: Essen (161m)

6-stündlich | Neueste Meldungen
Ortszeit Temperatur Wetter
Fr, 20.01. 13:00 3.0° C leicht bewölkt
Fr, 20.01. 7:00 -4.4° C wolkenlos
Fr, 20.01. 1:00 -1.7° C wolkenlos
Do, 19.01. 19:00 -0.2° C wolkenlos
Ortszeit Temperatur Wetter
Fr, 20.01. 16:30 2.8° C leicht bewölkt
Fr, 20.01. 16:00 2.8° C leicht bewölkt
Fr, 20.01. 15:30 3.2° C wolkig
Fr, 20.01. 15:00 3.3° C leicht bewölkt
Fr, 20.01. 14:30 3.5° C wolkig
Fr, 20.01. 14:00 3.6° C leicht bewölkt
Ortszeit Relative Feuchte Sichtweite
Fr, 20.01. 13:00 52% 35 km
Fr, 20.01. 7:00 85% 13 km
Fr, 20.01. 1:00 73% 13 km
Do, 19.01. 19:00 66% 11 km
Ortszeit Relative Feuchte Sichtweite
Fr, 20.01. 16:30 56% 20 km
Fr, 20.01. 16:00 57% 19 km
Fr, 20.01. 15:30 56% 20 km
Fr, 20.01. 15:00 54% 19 km
Fr, 20.01. 14:30 54% 18 km
Fr, 20.01. 14:00 54% 19 km
Ortszeit Niederschlagsmenge Niederschlagsart
Fr, 20.01. 13:00 0,0 l/m2 in 6 Std. -
Fr, 20.01. 7:00 0,0 l/m2 in 12 Std. -
Fr, 20.01. 1:00 0,0 l/m2 in 6 Std. -
Do, 19.01. 19:00 0,0 l/m2 in 12 Std. -
Ortszeit Niederschlagsmenge Niederschlagsart
Fr, 20.01. 16:30 keine Meldung -
Fr, 20.01. 16:00 0,0 l/m2 in 1 Std. -
Fr, 20.01. 15:30 keine Meldung -
Fr, 20.01. 15:00 0,0 l/m2 in 1 Std. -
Fr, 20.01. 14:30 keine Meldung -
Fr, 20.01. 14:00 0,0 l/m2 in 1 Std. -
Ortszeit Stärke Spitze Richtung
km/h Bft. km/h Grad Sektor
Fr, 20.01. 13:00 9 2 17 40° NO
Fr, 20.01. 7:00 4 1 22 140° SO
Fr, 20.01. 1:00 11 2 25 90° O
Do, 19.01. 19:00 11 2 18 50° NO
Ortszeit Stärke Spitze Richtung
km/h Bft. km/h Grad Sektor
Fr, 20.01. 16:30 11 2 18 50° NO
Fr, 20.01. 16:00 9 2 15 50° NO
Fr, 20.01. 15:30 7 2 15 40° NO
Fr, 20.01. 15:00 9 2 13 40° NO
Fr, 20.01. 14:30 7 2 11 40° NO
Fr, 20.01. 14:00 7 2 14 40° NO
Ortszeit Untergrenze Bedeckung Gattung
total tief tief mittel hoch
Fr, 20.01. 13:00 7200 m 8/8 0/8 - - -
Fr, 20.01. 7:00 - 0/8 0/8 - - -
Fr, 20.01. 1:00 - 0/8 0/8 - - -
Do, 19.01. 19:00 - 0/8 0/8 - - -
Ortszeit Bedeckungsgrad in Achtel und Wolkenuntergrenze
Fr, 20.01. 16:30 6(8100m)
Fr, 20.01. 16:00 5(8100m)
Fr, 20.01. 15:30 5(7200m) 7(8400m)
Fr, 20.01. 15:00 7(7200m) 7(7800m) 7(8400m)
Fr, 20.01. 14:30 8(7500m) 8(8400m)
Fr, 20.01. 14:00 6(7800m) 7(8400m)
Ortszeit Luftdruck NN (hPa) Tendenz (hPa in 3 Std.)
Fr, 20.01. 13:00 1035 - 0,6
Fr, 20.01. 7:00 1036 + 0,1
Fr, 20.01. 1:00 1037 - 0,7
Do, 19.01. 19:00 1037 + 0,2
Ortszeit Luftdruck NN (hPa) Tendenz (hPa in 3 Std.)
Fr, 20.01. 16:30 1034 - 0,9
Fr, 20.01. 16:00 1034 - 0,9
Fr, 20.01. 15:30 1034 - 1,0
Fr, 20.01. 15:00 1034 - 1,1
Fr, 20.01. 14:30 1034 - 1,2
Fr, 20.01. 14:00 1035 - 1,1
Ortszeit Schneehöhe (cm)
Fr, 20.01. 13:00 2
Fr, 20.01. 7:00 -
Fr, 20.01. 1:00 -
Do, 19.01. 19:00 -
Ortszeit Schneehöhe (cm)
Fr, 20.01. 16:30 -
Fr, 20.01. 16:00 -
Fr, 20.01. 15:30 -
Fr, 20.01. 15:00 2
Fr, 20.01. 14:30 2
Fr, 20.01. 14:00 2
Link zu dieser Seite / Seite empfehlen

Das Wetter in ...